Flight Track Log - Related Links

Times and Time Zones

All times are in EDT time to prevent confusion due to time zone crossing. See the ASQ5941 flight status page for this flight to view local times or setup timezone preferences in your user account.

Time Position Orientation Groundspeed Altitude Reporting Facility
EDT Latitude Longitude Course Direction KTS MPH feet Rate Location/Type
Fri 05:11:06 PM 41.4383 -75.6358 33° Northeast 217 250 5,200  Level New York Center
Fri 05:12:00 PM 41.4223 -75.9353 315° West  Level FlightAware Approximate
Fri 05:13:00 PM 41.4700 -76.0211 315° West  Level FlightAware Approximate
Fri 05:13:05 PM 41.5447 -75.7350 325° Northwest 263 303 9,400  Level New York Center
Fri 05:14:00 PM 41.5263 -76.0978 312° West  Level FlightAware Approximate
Fri 05:14:05 PM 41.5683 -75.8172 291° West 261 300 10,200  Level New York Center
Fri 05:15:00 PM 41.5798 -76.1780 312° West  Level FlightAware Approximate
Fri 05:15:07 PM 41.6014 -75.9225 293° West 289 333 11,200  Level New York Center
Fri 05:16:05 PM 41.6353 -76.0472 290° West 317 365 12,800 1,550 Climbing New York Center
Fri 05:17:07 PM 41.6658 -76.1578 290° West 323 372 14,300 1,366 Climbing New York Center
Fri 05:18:08 PM 41.6983 -76.2686 291° West 323 372 15,600 1,271 Climbing New York Center
Fri 05:19:05 PM 41.7269 -76.3683 291° West 323 372 16,800 1,000 Climbing New York Center
Fri 05:20:44 PM 41.7836 -76.5756 290° West 320 368 18,200 906 Climbing Cleveland Center
Fri 05:21:44 PM 41.8169 -76.6933 291° West 330 380 19,200 1,000 Climbing Cleveland Center
Fri 05:22:44 PM 41.8503 -76.8139 290° West 342 394 20,200 950 Climbing Cleveland Center
Fri 05:23:44 PM 41.8833 -76.9347 290° West 342 394 21,100 950 Climbing Cleveland Center
Fri 05:24:44 PM 41.9183 -77.0556 291° West 342 394 22,100 1,100 Climbing Cleveland Center
Fri 05:25:44 PM 41.9492 -77.1742 289° West 342 394 23,300 1,250 Climbing Cleveland Center
Fri 05:26:44 PM 41.9817 -77.2925 290° West 342 394 24,600 1,150 Climbing Cleveland Center
Fri 05:27:44 PM 42.0122 -77.4111 289° West 342 394 25,600 1,100 Climbing Cleveland Center
Fri 05:28:44 PM 42.0422 -77.5242 290° West 342 394 26,800 1,100 Climbing Cleveland Center
Fri 05:29:44 PM 42.0722 -77.6375 290° West 337 388 27,800 950 Climbing Cleveland Center
Fri 05:30:44 PM 42.1022 -77.7481 290° West 331 381 28,700 950 Climbing Cleveland Center
Fri 05:31:44 PM 42.1322 -77.8617 290° West 325 374 29,700 950 Climbing Cleveland Center
Fri 05:32:44 PM 42.1619 -77.9753 289° West 325 374 30,600 1,000 Climbing Cleveland Center
Fri 05:33:44 PM 42.1914 -78.0861 290° West 325 374 31,700 694 Climbing Cleveland Center
Fri 05:34:45 PM 42.2208 -78.2028 289° West 325 374 32,000 150 Climbing Cleveland Center
Fri 05:35:44 PM 42.2506 -78.3278 288° West 338 389 32,000  Level Cleveland Center
Fri 05:36:44 PM 42.2842 -78.4531 290° West 351 404 32,000  Level Cleveland Center
Fri 05:37:44 PM 42.3200 -78.5836 290° West 362 417 32,000  Level Cleveland Center
Fri 05:38:44 PM 42.3511 -78.7092 289° West 361 415 32,000  Level Cleveland Center
Fri 05:39:45 PM 42.3825 -78.8375 288° West 361 415 32,000  Level Cleveland Center
Fri 05:40:45 PM 42.4111 -78.9492 289° West 361 415 32,000  Level Cleveland Center
Fri 05:41:44 PM 42.4400 -79.0722 288° West 361 415 32,000  Level Cleveland Center
Fri 05:42:44 PM 42.4792 -79.2178 290° West 361 415 32,000  Level Cleveland Center
Fri 05:43:44 PM 42.4953 -79.3528 279° West 361 415 32,000  Level Cleveland Center
Fri 05:44:44 PM 42.5031 -79.4906 274° West 366 421 32,000  Level Cleveland Center
Fri 05:45:45 PM 42.5106 -79.6311 274° West 371 427 32,000  Level Cleveland Center
Fri 05:46:45 PM 42.5158 -79.7719 273° West 371 427 32,000  Level Cleveland Center
Fri 05:47:45 PM 42.5250 -79.9128 275° West 376 433 32,000  Level Cleveland Center
Fri 05:48:45 PM 42.5258 -80.0564 270° West 376 433 32,000  Level Cleveland Center
Fri 05:49:45 PM 42.5325 -80.1944 274° West 381 438 32,000  Level Cleveland Center
Fri 05:50:44 PM 42.5392 -80.3408 274° West 386 444 32,000  Level Cleveland Center
Fri 05:51:45 PM 42.5456 -80.4817 274° West 380 437 32,000  Level Cleveland Center
Fri 05:52:45 PM 42.5519 -80.6197 274° West 379 436 32,000  Level Cleveland Center
Fri 05:53:45 PM 42.5558 -80.7608 272° West 379 436 32,000  Level Cleveland Center
Fri 05:54:45 PM 42.5619 -80.8961 274° West 368 423 32,000  Level Cleveland Center
Fri 05:55:45 PM 42.5678 -81.0369 273° West 368 423 32,000  Level Cleveland Center
Fri 05:56:45 PM 42.5692 -81.1725 271° West 368 423 32,000  Level Cleveland Center
Fri 05:57:45 PM 42.5744 -81.3161 273° West 374 430 32,000  Level Cleveland Center
Fri 05:58:45 PM 42.5819 -81.4433 275° West 374 430 32,000  Level Cleveland Center
Fri 05:59:45 PM 42.6058 -81.5875 283° West 385 443 32,000  Level Cleveland Center
Fri 06:00:45 PM 42.6297 -81.7233 283° West 390 449 32,000  Level Cleveland Center
Fri 06:01:45 PM 42.6553 -81.8678 284° West 390 449 32,000  Level Cleveland Center
Fri 06:02:45 PM 42.6806 -82.0094 284° West 390 449 32,000  Level Cleveland Center
Fri 06:03:45 PM 42.7058 -82.1569 283° West 395 455 32,000  Level Cleveland Center
Fri 06:04:45 PM 42.7308 -82.3017 283° West 395 455 32,000  Level Cleveland Center
Fri 06:05:45 PM 42.7556 -82.4467 283° West 395 455 32,000  Level Cleveland Center
Fri 06:06:45 PM 42.7781 -82.5944 282° West 395 455 32,000  Level Cleveland Center
Fri 06:07:45 PM 42.8028 -82.7311 284° West 390 449 32,000  Level Cleveland Center
Fri 06:08:45 PM 42.8253 -82.8678 283° West 380 437 32,000  Level Cleveland Center
Fri 06:09:45 PM 42.8686 -82.9939 295° West 369 425 32,000  Level Cleveland Center
Fri 06:10:45 PM 42.9264 -83.1067 305° West 360 414 32,000  Level Cleveland Center
Fri 06:11:45 PM 42.9864 -83.2200 306° West 371 427 32,000 -200 Level Cleveland Center
Fri 06:12:45 PM 43.0272 -83.3467 294° West 371 427 31,600 -700 Descending Cleveland Center
Fri 06:13:45 PM 43.0094 -83.4822 260° West 343 395 30,600 -807 Descending Cleveland Center
Fri 06:14:44 PM 42.9872 -83.6117 257° West 349 402 30,000 -300 Descending Cleveland Center
Fri 06:15:45 PM 42.9672 -83.7411 258° West 355 409 30,000  Level Cleveland Center
Fri 06:16:44 PM 42.9531 -83.8739 262° West 355 409 30,000  Level Cleveland Center
Fri 06:17:45 PM 42.9386 -84.0092 262° West 355 409 30,000  Level Cleveland Center
Fri 06:18:45 PM 42.9283 -84.1419 264° West 355 409 30,000  Level Cleveland Center
Fri 06:21:08 PM 42.9133 -84.4636 266° West 369 425 30,000  Level Chicago Center
Fri 06:22:10 PM 42.8828 -84.5972 253° West 369 425 30,000  Level Chicago Center
Fri 06:23:12 PM 42.8678 -84.7347 262° West 369 425 30,000  Level Chicago Center
Fri 06:24:14 PM 42.8547 -84.8725 263° West 369 425 30,000  Level Chicago Center
Fri 06:25:16 PM 42.8372 -85.0378 262° West 368 423 30,000  Level Chicago Center
Fri 06:26:18 PM 42.8228 -85.1733 262° West 364 419 30,000 -242 Level Chicago Center
Fri 06:27:20 PM 42.8067 -85.3133 261° West 372 428 29,500 -774 Descending Chicago Center
Fri 06:28:22 PM 42.7903 -85.4611 261° West 391 450 28,400 -726 Descending Chicago Center
Fri 06:29:24 PM 42.7669 -85.6053 258° West 390 449 28,000 -435 Descending Chicago Center
Fri 06:30:26 PM 42.7414 -85.7492 256° West 389 448 27,500 -1,248 Descending Chicago Center
Fri 06:31:29 PM 42.7153 -85.8917 256° West 388 447 25,400 -2,400 Descending Chicago Center
Fri 06:32:31 PM 42.6847 -86.0558 256° West 376 433 22,500 -2,468 Descending Chicago Center
Fri 06:33:33 PM 42.6611 -86.1861 256° West 362 417 20,300 -1,210 Descending Chicago Center
Fri 06:34:35 PM 42.6383 -86.3139 256° West 351 404 20,000 -145 Descending Chicago Center
Fri 06:35:37 PM 42.6133 -86.4381 255° West 344 396 20,000 -194 Level Chicago Center
Fri 06:36:39 PM 42.5908 -86.5642 256° West 343 395 19,600 -1,355 Descending Chicago Center
Fri 06:37:41 PM 42.5681 -86.6856 256° West 342 394 17,200 -2,419 Descending Chicago Center
Fri 06:38:43 PM 42.5403 -86.8011 252° West 316 364 14,600 -2,758 Descending Chicago Center
Fri 06:39:45 PM 42.5067 -86.9244 250° West 293 337 11,500 -2,177 Descending Chicago Center
Fri 06:40:47 PM 42.4794 -87.0222 249° West 280 322 10,100 -720 Descending Chicago Center
Fri 06:41:50 PM 42.4525 -87.1189 249° West 274 315 10,000 -48 Descending Chicago Center
Fri 06:42:52 PM 42.4261 -87.2181 250° West 280 322 10,000  Level Chicago Center
Fri 06:43:54 PM 42.3992 -87.3169 250° West 281 323 10,000  Level Chicago Center
Fri 06:44:56 PM 42.3678 -87.4275 249° West 280 322 10,000  Level Chicago Center
Fri 06:45:58 PM 42.3406 -87.5264 250° West 282 325 10,000 -532 Level Chicago Center
Fri 06:47:00 PM 42.2858 -87.5936 222° Southwest 270 311 8,900 -968 Descending Chicago Center
Fri 06:48:02 PM 42.2161 -87.6675 218° Southwest 264 304 8,000 -435 Descending Chicago Center
Fri 06:49:04 PM 42.1606 -87.7267 218° Southwest 258 297 8,000  Level Chicago Center
Fri 06:50:06 PM 42.0972 -87.7717 208° Southwest 261 300 8,000  Level Chicago Center
Fri 06:50:44 PM 42.0500 -87.8000 204° Southwest 264 304 8,000  Level Chicago TRACON
Fri 06:51:44 PM 41.9833 -87.8167 191° South 273 314 8,000 -400 Level Chicago TRACON
Fri 06:52:44 PM 41.9167 -87.8500 200° South 246 283 7,200 -1,263 Descending Chicago TRACON
Fri 06:53:38 PM 41.8667 -87.8833 206° Southwest 217 250 5,600 -1,648 Descending Chicago TRACON
Fri 06:54:15 PM 41.8294 -87.8922 190° South 223 257 4,700 -970 Descending Chicago Center
Fri 06:55:17 PM 41.8217 -87.9567 261° West 242 278 4,000 -774 Descending Chicago Center
Fri 06:56:19 PM 41.8831 -87.9664 353° North 231 266 3,100 -871 Descending Chicago Center

Login

Don't have an account? Register now (free) for customized features, flight alerts, and more!